createdAt,value
2023-04-08T00:01:54.587Z,22.20
2023-04-08T00:04:22.957Z,22.20
2023-04-08T00:06:51.420Z,22.10
2023-04-08T00:09:19.641Z,22.10
2023-04-08T00:11:47.876Z,22.30
2023-04-08T00:14:16.053Z,22.50
2023-04-08T00:16:44.472Z,22.70
2023-04-08T00:19:12.949Z,22.80
2023-04-08T00:21:41.030Z,22.50
2023-04-08T00:24:09.517Z,22.40
2023-04-08T00:26:37.809Z,22.30
2023-04-08T00:29:05.951Z,22.20
2023-04-08T00:31:34.354Z,22.20
2023-04-08T00:34:02.530Z,22.20
2023-04-08T00:36:30.810Z,22.20
2023-04-08T00:38:59.060Z,22.10
2023-04-08T00:41:27.343Z,22.10
2023-04-08T00:43:55.637Z,22.10
2023-04-08T00:46:23.986Z,22.10
2023-04-08T00:48:52.332Z,22.10
2023-04-08T00:51:21.098Z,22.00
2023-04-08T00:53:49.311Z,22.00
2023-04-08T00:56:17.492Z,22.00
2023-04-08T00:58:45.648Z,22.30
2023-04-08T01:01:43.150Z,22.50
2023-04-08T01:04:28.056Z,22.70
2023-04-08T01:07:01.756Z,22.60
2023-04-08T01:09:33.968Z,22.40
2023-04-08T01:12:07.188Z,22.20
2023-04-08T01:14:39.574Z,22.20
2023-04-08T01:17:09.444Z,22.40
2023-04-08T01:19:40.835Z,22.60
2023-04-08T01:22:28.072Z,22.80
2023-04-08T01:25:07.169Z,22.70
2023-04-08T01:27:36.495Z,22.50
2023-04-08T01:30:06.828Z,22.30
2023-04-08T01:32:36.115Z,22.20
2023-04-08T01:35:05.135Z,22.20
2023-04-08T01:37:34.271Z,22.40
2023-04-08T01:40:03.947Z,22.60
2023-04-08T01:42:34.215Z,22.80
2023-04-08T01:45:04.110Z,22.80
2023-04-08T01:47:34.848Z,22.60
2023-04-08T01:50:04.172Z,22.40
2023-04-08T01:52:35.468Z,22.30
2023-04-08T01:55:04.145Z,22.20
2023-04-08T01:57:33.059Z,22.20
2023-04-08T02:00:06.055Z,22.20
2023-04-08T02:02:48.300Z,22.20
2023-04-08T02:05:17.038Z,22.10
2023-04-08T02:07:45.515Z,22.10
2023-04-08T02:10:14.005Z,22.10
2023-04-08T02:12:42.956Z,22.00
2023-04-08T02:15:12.947Z,22.10
2023-04-08T02:17:53.583Z,22.00
2023-04-08T02:20:38.050Z,22.00
2023-04-08T02:23:16.485Z,22.10
2023-04-08T02:25:47.621Z,22.30
2023-04-08T02:28:18.419Z,22.50
2023-04-08T02:30:51.954Z,22.70
2023-04-08T02:33:22.739Z,22.70
2023-04-08T02:35:55.297Z,22.50
2023-04-08T02:38:24.608Z,22.20
2023-04-08T02:40:52.703Z,22.20
2023-04-08T02:43:21.034Z,22.30
2023-04-08T02:45:49.465Z,22.50
2023-04-08T02:48:17.787Z,22.70
2023-04-08T02:50:46.289Z,22.90
2023-04-08T02:53:14.552Z,22.70
2023-04-08T02:55:42.953Z,22.50
2023-04-08T02:58:11.144Z,22.30
2023-04-08T03:00:39.614Z,22.20
2023-04-08T03:03:07.831Z,22.30
2023-04-08T03:05:36.138Z,22.60
2023-04-08T03:08:04.327Z,22.80
2023-04-08T03:10:32.631Z,23.00
2023-04-08T03:13:00.713Z,22.80
2023-04-08T03:15:28.978Z,22.50
2023-04-08T03:17:57.285Z,22.30
2023-04-08T03:20:25.740Z,22.20
2023-04-08T03:22:53.930Z,22.20
2023-04-08T03:25:22.178Z,22.30
2023-04-08T03:27:50.350Z,22.40
2023-04-08T03:30:18.657Z,22.60
2023-04-08T03:32:46.917Z,22.80
2023-04-08T03:35:15.216Z,22.80
2023-04-08T03:37:43.422Z,22.60
2023-04-08T03:40:12.501Z,22.40
2023-04-08T03:42:40.600Z,22.30
2023-04-08T03:45:09.214Z,22.30
2023-04-08T03:47:37.602Z,22.20
2023-04-08T03:50:06.339Z,22.10
2023-04-08T03:52:34.626Z,22.10
2023-04-08T03:55:02.858Z,22.10
2023-04-08T03:57:31.099Z,22.10
2023-04-08T03:59:59.580Z,22.20
2023-04-08T04:02:28.000Z,22.40
2023-04-08T04:04:56.681Z,22.50
2023-04-08T04:07:25.021Z,22.70
2023-04-08T04:09:53.155Z,22.80
2023-04-08T04:12:21.496Z,22.50
2023-04-08T04:14:49.519Z,22.30
2023-04-08T04:17:17.771Z,22.20
2023-04-08T04:19:45.925Z,22.30
2023-04-08T04:22:14.182Z,22.50
2023-04-08T04:24:42.199Z,22.70
2023-04-08T04:27:10.376Z,22.90
2023-04-08T04:29:38.605Z,22.70
2023-04-08T04:32:07.061Z,22.50
2023-04-08T04:34:35.287Z,22.30
2023-04-08T04:37:03.453Z,22.20
2023-04-08T04:39:31.702Z,22.30
2023-04-08T04:41:59.916Z,22.50
2023-04-08T04:44:28.009Z,22.70
2023-04-08T04:46:56.317Z,22.90
2023-04-08T04:49:24.582Z,22.80
2023-04-08T04:51:52.945Z,22.60
2023-04-08T04:54:21.124Z,22.40
2023-04-08T04:56:49.433Z,22.30
2023-04-08T04:59:17.637Z,22.20
2023-04-08T05:01:45.960Z,22.20
2023-04-08T05:04:14.229Z,22.20
2023-04-08T05:06:42.381Z,22.20
2023-04-08T05:09:10.715Z,22.40
2023-04-08T05:11:38.994Z,22.60
2023-04-08T05:14:07.237Z,22.80
2023-04-08T05:16:35.672Z,22.80
2023-04-08T05:19:03.877Z,22.60
2023-04-08T05:21:32.226Z,22.40
2023-04-08T05:24:00.426Z,22.30
2023-04-08T05:26:28.768Z,22.30
2023-04-08T05:28:56.944Z,22.50
2023-04-08T05:31:25.588Z,22.70
2023-04-08T05:33:53.898Z,22.90
2023-04-08T05:36:22.152Z,22.90
2023-04-08T05:38:50.631Z,22.60
2023-04-08T05:41:18.901Z,22.40
2023-04-08T05:43:47.074Z,22.20
2023-04-08T05:46:15.332Z,22.20
2023-04-08T05:48:43.709Z,22.20
2023-04-08T05:51:16.045Z,22.10
2023-04-08T05:53:46.244Z,22.10
2023-04-08T05:56:14.546Z,22.30
2023-04-08T05:58:42.710Z,22.50
2023-04-08T06:01:11.078Z,22.70
2023-04-08T06:03:39.487Z,22.80
2023-04-08T06:06:11.813Z,22.70
2023-04-08T06:08:40.387Z,22.40
2023-04-08T06:11:09.085Z,22.30
2023-04-08T06:13:36.952Z,22.20
2023-04-08T06:16:15.465Z,22.40
2023-04-08T06:18:43.960Z,22.60
2023-04-08T06:21:12.205Z,22.80
2023-04-08T06:23:40.477Z,22.90
2023-04-08T06:26:08.738Z,22.70
2023-04-08T06:28:37.137Z,22.50
2023-04-08T06:31:05.225Z,22.30
2023-04-08T06:33:33.509Z,22.30
2023-04-08T06:36:05.808Z,22.50
2023-04-08T06:38:34.257Z,22.70
2023-04-08T06:41:08.958Z,22.90
2023-04-08T06:43:37.949Z,22.90
2023-04-08T06:46:06.327Z,22.60
2023-04-08T06:48:34.569Z,22.40
2023-04-08T06:51:03.055Z,22.30
2023-04-08T06:53:31.222Z,22.50
2023-04-08T06:55:59.574Z,22.70
2023-04-08T06:58:27.758Z,22.80
2023-04-08T07:00:56.467Z,23.00
2023-04-08T07:03:25.139Z,22.90
2023-04-08T07:05:53.496Z,22.60
2023-04-08T07:08:21.899Z,22.40
2023-04-08T07:10:50.060Z,22.40
2023-04-08T07:13:18.257Z,22.60
2023-04-08T07:15:46.759Z,22.80
2023-04-08T07:18:14.976Z,23.00
2023-04-08T07:20:43.361Z,23.10
2023-04-08T07:23:11.571Z,22.80
2023-04-08T07:25:39.761Z,22.50
2023-04-08T07:28:07.958Z,22.40
2023-04-08T07:30:36.127Z,22.30
2023-04-08T07:33:04.626Z,22.30
2023-04-08T07:35:34.133Z,22.50
2023-04-08T07:38:02.214Z,22.70
2023-04-08T07:40:30.663Z,22.90
2023-04-08T07:42:58.926Z,22.90
2023-04-08T07:45:27.188Z,22.60
2023-04-08T07:47:55.388Z,22.40
2023-04-08T07:50:23.968Z,22.30
2023-04-08T07:52:52.151Z,22.20
2023-04-08T07:55:20.327Z,22.20
2023-04-08T07:57:49.132Z,22.40
2023-04-08T08:00:17.443Z,22.60
2023-04-08T08:02:45.706Z,22.80
2023-04-08T08:05:14.308Z,22.90
2023-04-08T08:07:42.533Z,22.80
2023-04-08T08:10:11.054Z,22.50
2023-04-08T08:12:39.436Z,22.30
2023-04-08T08:15:08.072Z,22.30
2023-04-08T08:17:36.072Z,22.50
2023-04-08T08:20:04.638Z,22.60
2023-04-08T08:22:33.177Z,22.80
2023-04-08T08:25:01.105Z,23.00
2023-04-08T08:27:29.546Z,22.70
2023-04-08T08:29:57.713Z,22.50
2023-04-08T08:32:26.120Z,22.30
2023-04-08T08:34:54.545Z,22.30
2023-04-08T08:37:22.666Z,22.30
2023-04-08T08:39:50.936Z,22.20
2023-04-08T08:42:24.135Z,22.20
2023-04-08T08:44:52.524Z,22.20
2023-04-08T08:47:20.935Z,22.30
2023-04-08T08:49:49.119Z,22.30
2023-04-08T08:52:17.871Z,22.30
2023-04-08T08:54:46.433Z,22.30
2023-04-08T08:57:18.374Z,22.40
2023-04-08T08:59:49.547Z,22.50
2023-04-08T09:02:32.449Z,22.50
2023-04-08T09:05:12.090Z,22.40
2023-04-08T09:07:41.192Z,22.30
2023-04-08T09:10:09.565Z,22.30
2023-04-08T09:12:55.636Z,22.30
2023-04-08T09:15:24.058Z,22.40
2023-04-08T09:17:52.336Z,22.70
2023-04-08T09:20:21.213Z,22.80
2023-04-08T09:22:56.201Z,22.90
2023-04-08T09:25:29.422Z,22.60
2023-04-08T09:27:57.838Z,22.40
2023-04-08T09:30:27.788Z,22.30
2023-04-08T09:32:57.762Z,22.40
2023-04-08T09:35:26.917Z,22.60
2023-04-08T09:37:55.249Z,22.70
2023-04-08T09:40:25.523Z,22.80
2023-04-08T09:42:55.779Z,22.70
2023-04-08T09:45:26.164Z,22.50
2023-04-08T09:47:59.582Z,22.40
2023-04-08T09:50:36.924Z,22.30
2023-04-08T09:53:17.374Z,22.50
2023-04-08T09:55:53.951Z,22.70
2023-04-08T09:58:39.791Z,22.90
2023-04-08T10:01:11.252Z,22.80
2023-04-08T10:03:55.085Z,22.60
2023-04-08T10:06:28.330Z,22.50
2023-04-08T10:08:58.634Z,22.40
2023-04-08T10:11:26.915Z,22.40
2023-04-08T10:13:55.661Z,22.60
2023-04-08T10:16:26.262Z,22.70
2023-04-08T10:18:55.762Z,22.90
2023-04-08T10:21:40.290Z,22.70
2023-04-08T10:24:12.753Z,22.50
2023-04-08T10:26:46.457Z,22.40
2023-04-08T10:29:19.762Z,22.40
2023-04-08T10:31:49.832Z,22.50
2023-04-08T10:34:19.089Z,22.80
2023-04-08T10:36:48.195Z,22.90
2023-04-08T10:39:17.348Z,23.10
2023-04-08T10:41:47.312Z,22.80
2023-04-08T10:44:24.434Z,22.60
2023-04-08T10:46:54.628Z,22.40
2023-04-08T10:49:23.334Z,22.50
2023-04-08T10:51:51.640Z,22.70
2023-04-08T10:54:20.122Z,22.90
2023-04-08T10:56:50.480Z,23.00
2023-04-08T10:59:28.272Z,22.90
2023-04-08T11:01:56.817Z,22.60
2023-04-08T11:04:26.732Z,22.50
2023-04-08T11:06:55.155Z,22.40
2023-04-08T11:09:23.278Z,22.40
2023-04-08T11:11:53.031Z,22.30
2023-04-08T11:14:21.397Z,22.20
2023-04-08T11:16:49.874Z,22.30
2023-04-08T11:19:18.723Z,22.50
2023-04-08T11:21:47.082Z,22.70
2023-04-08T11:24:15.221Z,22.90
2023-04-08T11:26:43.835Z,22.90
2023-04-08T11:29:13.372Z,22.70
2023-04-08T11:31:44.219Z,22.60
2023-04-08T11:34:12.935Z,22.60
2023-04-08T11:36:47.922Z,22.60
2023-04-08T11:39:16.348Z,22.50
2023-04-08T11:41:44.736Z,22.40
2023-04-08T11:44:13.157Z,22.40
2023-04-08T11:46:41.762Z,22.40
2023-04-08T11:49:10.271Z,22.40
2023-04-08T11:51:56.412Z,22.40
2023-04-08T11:54:32.571Z,22.40
2023-04-08T11:57:01.319Z,22.30
2023-04-08T11:59:29.920Z,22.30
2023-04-08T12:01:58.475Z,22.20
2023-04-08T12:04:26.975Z,22.20
2023-04-08T12:06:56.955Z,22.10
2023-04-08T12:09:26.602Z,22.10
2023-04-08T12:11:54.718Z,22.10
2023-04-08T12:14:23.148Z,22.20
2023-04-08T12:16:51.468Z,22.50
2023-04-08T12:19:19.654Z,22.60
2023-04-08T12:21:47.755Z,22.70
2023-04-08T12:24:16.196Z,22.50
2023-04-08T12:26:44.290Z,22.30
2023-04-08T12:29:12.511Z,22.30
2023-04-08T12:31:40.769Z,22.40
2023-04-08T12:34:09.118Z,22.60
2023-04-08T12:36:37.309Z,22.80
2023-04-08T12:39:05.661Z,22.80
2023-04-08T12:41:33.854Z,22.60
2023-04-08T12:44:02.055Z,22.40
2023-04-08T12:46:30.380Z,22.30
2023-04-08T12:49:04.161Z,22.40
2023-04-08T12:51:33.641Z,22.60
2023-04-08T12:54:02.505Z,22.80
2023-04-08T12:56:31.911Z,22.80
2023-04-08T12:59:01.155Z,22.60
2023-04-08T13:01:29.411Z,22.50
2023-04-08T13:03:57.928Z,22.40
2023-04-08T13:06:26.163Z,22.50
2023-04-08T13:08:55.087Z,22.70
2023-04-08T13:11:23.060Z,22.80
2023-04-08T13:13:51.389Z,22.80
2023-04-08T13:16:19.893Z,22.60
2023-04-08T13:18:48.285Z,22.40
2023-04-08T13:21:16.682Z,22.40
2023-04-08T13:23:44.969Z,22.40
2023-04-08T13:26:13.468Z,22.60
2023-04-08T13:28:55.950Z,22.80
2023-04-08T13:31:25.990Z,22.90
2023-04-08T13:33:56.967Z,22.70
2023-04-08T13:36:26.675Z,22.50
2023-04-08T13:38:54.772Z,22.40
2023-04-08T13:41:23.048Z,22.40
2023-04-08T13:43:51.330Z,22.30
2023-04-08T13:46:19.671Z,22.50
2023-04-08T13:48:47.836Z,22.70
2023-04-08T13:51:16.179Z,22.90
2023-04-08T13:53:44.296Z,22.70
2023-04-08T13:56:12.571Z,22.60
2023-04-08T13:58:40.857Z,22.40
2023-04-08T14:01:09.125Z,22.40
2023-04-08T14:03:37.312Z,22.30
2023-04-08T14:06:05.742Z,22.40
2023-04-08T14:08:33.840Z,22.60
2023-04-08T14:11:02.087Z,22.80
2023-04-08T14:13:30.364Z,22.80
2023-04-08T14:15:58.648Z,22.60
2023-04-08T14:18:26.846Z,22.50
2023-04-08T14:20:55.217Z,22.50
2023-04-08T14:23:23.432Z,22.40
2023-04-08T14:25:51.691Z,22.40
2023-04-08T14:28:19.897Z,22.30
2023-04-08T14:30:48.193Z,22.30
2023-04-08T14:33:16.294Z,22.30
2023-04-08T14:35:44.852Z,22.20
2023-04-08T14:38:13.436Z,22.20
2023-04-08T14:40:41.674Z,22.20
2023-04-08T14:43:09.925Z,22.40
2023-04-08T14:45:38.149Z,22.70
2023-04-08T14:48:06.563Z,22.80
2023-04-08T14:50:35.057Z,22.70
2023-04-08T14:53:03.275Z,22.60
2023-04-08T14:55:31.583Z,22.50
2023-04-08T14:58:01.048Z,22.50
2023-04-08T15:00:29.755Z,22.40
2023-04-08T15:02:58.138Z,22.50
2023-04-08T15:05:26.273Z,22.40
2023-04-08T15:07:54.890Z,22.40
2023-04-08T15:10:22.727Z,22.40
2023-04-08T15:12:50.947Z,22.40
2023-04-08T15:15:19.233Z,22.30
2023-04-08T15:17:49.619Z,22.30
2023-04-08T15:20:19.984Z,22.30
2023-04-08T15:22:48.688Z,22.30
2023-04-08T15:25:17.012Z,22.30
2023-04-08T15:27:45.319Z,22.20
2023-04-08T15:30:13.754Z,22.20
2023-04-08T15:32:41.989Z,22.20
2023-04-08T15:35:10.989Z,22.20
2023-04-08T15:37:39.167Z,22.20
2023-04-08T15:40:08.223Z,22.20
2023-04-08T15:42:36.526Z,22.20
2023-04-08T15:45:05.449Z,22.20
2023-04-08T15:47:33.247Z,22.20
2023-04-08T15:50:01.545Z,22.20
2023-04-08T15:52:29.935Z,22.20
2023-04-08T15:54:58.868Z,22.20
2023-04-08T15:57:27.110Z,22.20
2023-04-08T15:59:55.365Z,22.20
2023-04-08T16:02:23.832Z,22.20
2023-04-08T16:04:51.869Z,22.20
2023-04-08T16:07:20.121Z,22.20
2023-04-08T16:09:48.345Z,22.20
2023-04-08T16:12:16.560Z,22.10
2023-04-08T16:14:44.768Z,22.10
2023-04-08T16:17:13.115Z,22.10
2023-04-08T16:19:41.307Z,22.10
2023-04-08T16:22:09.636Z,22.10
2023-04-08T16:24:37.956Z,22.10
2023-04-08T16:27:06.252Z,22.10
2023-04-08T16:29:34.698Z,22.10
2023-04-08T16:32:03.050Z,22.10
2023-04-08T16:34:31.304Z,22.10
2023-04-08T16:36:59.589Z,22.10
2023-04-08T16:39:28.474Z,22.00
2023-04-08T16:41:56.676Z,22.10
2023-04-08T16:44:25.281Z,22.10
2023-04-08T16:46:53.513Z,22.10
2023-04-08T16:49:21.818Z,22.10
2023-04-08T16:51:50.142Z,22.10
2023-04-08T16:54:18.306Z,22.10
2023-04-08T16:56:46.455Z,22.10
2023-04-08T16:59:14.787Z,22.10
2023-04-08T17:01:42.974Z,22.10
2023-04-08T17:04:11.316Z,22.10
2023-04-08T17:06:41.639Z,22.10
2023-04-08T17:09:09.896Z,22.10
2023-04-08T17:11:38.015Z,22.10
2023-04-08T17:14:06.488Z,22.10
2023-04-08T17:16:34.681Z,22.10
2023-04-08T17:19:03.153Z,22.10
2023-04-08T17:21:31.441Z,22.10
2023-04-08T17:23:59.729Z,22.10
2023-04-08T17:26:27.995Z,22.00
2023-04-08T17:28:56.275Z,22.00
2023-04-08T17:31:24.615Z,22.00
2023-04-08T17:33:52.791Z,22.00
2023-04-08T17:36:21.036Z,22.00
2023-04-08T17:38:49.369Z,22.00
2023-04-08T17:41:29.900Z,22.00
2023-04-08T17:44:05.902Z,21.90
2023-04-08T17:46:34.036Z,22.00
2023-04-08T17:49:02.580Z,22.00
2023-04-08T17:51:31.576Z,21.90
2023-04-08T17:53:59.467Z,21.90
2023-04-08T17:56:27.961Z,21.90
2023-04-08T17:58:56.160Z,21.90
2023-04-08T18:01:24.558Z,21.90
2023-04-08T18:03:53.228Z,21.90
2023-04-08T18:06:21.808Z,21.90
2023-04-08T18:08:50.085Z,21.90
2023-04-08T18:11:18.315Z,21.90
2023-04-08T18:13:46.540Z,22.00
2023-04-08T18:16:18.815Z,22.20
2023-04-08T18:18:47.876Z,22.50
2023-04-08T18:21:16.923Z,22.60
2023-04-08T18:23:49.997Z,22.50
2023-04-08T18:26:18.562Z,22.30
2023-04-08T18:28:46.658Z,22.20
2023-04-08T18:31:15.021Z,22.20
2023-04-08T18:33:43.350Z,22.10
2023-04-08T18:36:13.042Z,22.10
2023-04-08T18:38:41.332Z,22.00
2023-04-08T18:41:09.728Z,22.00
2023-04-08T18:43:37.956Z,22.00
2023-04-08T18:46:06.157Z,22.00
2023-04-08T18:48:34.270Z,22.00
2023-04-08T18:51:02.601Z,22.00
2023-04-08T18:53:30.780Z,22.00
2023-04-08T18:55:59.213Z,22.00
2023-04-08T18:58:27.575Z,22.00
2023-04-08T19:00:55.783Z,22.00
2023-04-08T19:03:24.236Z,22.00
2023-04-08T19:05:52.813Z,21.90
2023-04-08T19:08:21.367Z,21.90
2023-04-08T19:10:49.616Z,22.00
2023-04-08T19:13:17.916Z,22.30
2023-04-08T19:15:46.329Z,22.50
2023-04-08T19:18:14.498Z,22.60
2023-04-08T19:20:43.001Z,22.50
2023-04-08T19:23:11.484Z,22.40
2023-04-08T19:25:39.891Z,22.20
2023-04-08T19:28:08.288Z,22.10
2023-04-08T19:30:39.968Z,22.20
2023-04-08T19:33:09.096Z,22.40
2023-04-08T19:35:37.883Z,22.60
2023-04-08T19:38:06.119Z,22.80
2023-04-08T19:40:34.419Z,22.70
2023-04-08T19:43:02.703Z,22.40
2023-04-08T19:45:30.884Z,22.30
2023-04-08T19:47:59.378Z,22.30
2023-04-08T19:50:27.597Z,22.60
2023-04-08T19:52:55.848Z,22.80
2023-04-08T19:55:24.343Z,22.90
2023-04-08T19:57:52.479Z,22.80
2023-04-08T20:00:20.747Z,22.60
2023-04-08T20:02:49.390Z,22.50
2023-04-08T20:05:17.870Z,22.40
2023-04-08T20:07:46.277Z,22.40
2023-04-08T20:10:15.040Z,22.30
2023-04-08T20:12:43.226Z,22.30
2023-04-08T20:15:23.577Z,22.30
2023-04-08T20:17:53.371Z,22.20
2023-04-08T20:20:21.650Z,22.20
2023-04-08T20:22:49.990Z,22.20
2023-04-08T20:25:18.345Z,22.20
2023-04-08T20:27:46.597Z,22.20
2023-04-08T20:30:14.718Z,22.10
2023-04-08T20:32:43.076Z,22.10
2023-04-08T20:35:11.411Z,22.10
2023-04-08T20:37:39.665Z,22.10
2023-04-08T20:40:08.660Z,22.00
2023-04-08T20:42:36.439Z,22.00
2023-04-08T20:45:04.897Z,22.00
2023-04-08T20:47:33.296Z,22.00
2023-04-08T20:50:01.576Z,22.00
2023-04-08T20:52:32.077Z,21.90
2023-04-08T20:55:00.458Z,22.10
2023-04-08T20:57:28.801Z,22.30
2023-04-08T20:59:57.268Z,22.50
2023-04-08T21:02:25.558Z,22.60
2023-04-08T21:04:53.856Z,22.50
2023-04-08T21:07:25.733Z,22.20
2023-04-08T21:09:54.002Z,22.20
2023-04-08T21:12:22.113Z,22.30
2023-04-08T21:14:50.422Z,22.50
2023-04-08T21:17:18.579Z,22.70
2023-04-08T21:19:46.793Z,22.70
2023-04-08T21:22:15.462Z,22.40
2023-04-08T21:24:43.598Z,22.20
2023-04-08T21:27:11.802Z,22.30
2023-04-08T21:29:40.096Z,22.60
2023-04-08T21:32:08.359Z,22.80
2023-04-08T21:34:36.779Z,22.80
2023-04-08T21:37:04.988Z,22.60
2023-04-08T21:39:33.247Z,22.40
2023-04-08T21:42:01.422Z,22.30
2023-04-08T21:44:29.747Z,22.20
2023-04-08T21:47:00.376Z,22.20
2023-04-08T21:49:30.203Z,22.20
2023-04-08T21:51:58.458Z,22.20
2023-04-08T21:54:26.701Z,22.20
2023-04-08T21:56:54.991Z,22.10
2023-04-08T21:59:23.392Z,22.10
2023-04-08T22:01:51.735Z,22.20
2023-04-08T22:04:20.394Z,22.10
2023-04-08T22:06:48.700Z,22.10
2023-04-08T22:09:17.510Z,22.00
2023-04-08T22:11:45.783Z,22.00
2023-04-08T22:14:14.905Z,22.00
2023-04-08T22:16:43.932Z,22.00
2023-04-08T22:19:12.409Z,22.00
2023-04-08T22:21:40.605Z,22.00
2023-04-08T22:24:08.985Z,22.00
2023-04-08T22:26:37.338Z,22.00
2023-04-08T22:29:05.597Z,21.90
2023-04-08T22:31:34.052Z,21.90
2023-04-08T22:34:02.418Z,21.90
2023-04-08T22:36:30.628Z,21.90
2023-04-08T22:38:58.958Z,21.90
2023-04-08T22:41:27.244Z,21.90
2023-04-08T22:43:55.583Z,21.90
2023-04-08T22:46:24.069Z,21.90
2023-04-08T22:48:52.949Z,21.90
2023-04-08T22:51:21.474Z,22.00
2023-04-08T22:53:49.934Z,22.20
2023-04-08T22:56:18.358Z,22.50
2023-04-08T22:58:46.700Z,22.60
2023-04-08T23:01:19.468Z,22.40
2023-04-08T23:03:48.075Z,22.30
2023-04-08T23:06:16.808Z,22.20
2023-04-08T23:08:44.805Z,22.10
2023-04-08T23:11:13.078Z,22.20
2023-04-08T23:13:41.428Z,22.30
2023-04-08T23:16:09.623Z,22.50
2023-04-08T23:18:38.068Z,22.70
2023-04-08T23:21:06.394Z,22.70
2023-04-08T23:23:34.718Z,22.50
2023-04-08T23:26:02.971Z,22.30
2023-04-08T23:28:31.229Z,22.20
2023-04-08T23:30:59.376Z,22.20
2023-04-08T23:33:27.776Z,22.10
2023-04-08T23:35:55.898Z,22.10
2023-04-08T23:38:24.254Z,22.00
2023-04-08T23:40:52.525Z,22.00
2023-04-08T23:43:20.593Z,22.00
2023-04-08T23:45:48.857Z,22.00
2023-04-08T23:48:17.169Z,22.00
2023-04-08T23:50:45.399Z,21.90
2023-04-08T23:53:13.719Z,21.90
2023-04-08T23:55:41.930Z,21.90
2023-04-08T23:58:10.368Z,21.90
